createdAt,value
2023-04-18T00:01:17.982Z,103067.63
2023-04-18T00:03:45.962Z,103071.16
2023-04-18T00:06:14.512Z,103074.84
2023-04-18T00:08:42.173Z,103072.50
2023-04-18T00:11:09.668Z,103085.22
2023-04-18T00:13:38.642Z,103079.84
2023-04-18T00:16:08.079Z,103076.31
2023-04-18T00:18:37.179Z,103066.56
2023-04-18T00:21:04.956Z,103084.41
2023-04-18T00:23:34.402Z,103077.50
2023-04-18T00:26:02.111Z,103082.06
2023-04-18T00:28:29.757Z,103076.91
2023-04-18T00:30:57.437Z,103086.56
2023-04-18T00:33:25.082Z,103086.72
2023-04-18T00:35:54.702Z,103085.97
2023-04-18T00:38:22.279Z,103079.66
2023-04-18T00:40:49.884Z,103086.56
2023-04-18T00:43:17.710Z,103083.97
2023-04-18T00:45:45.306Z,103087.53
2023-04-18T00:48:12.968Z,103087.25
2023-04-18T00:50:41.762Z,103084.94
2023-04-18T00:53:11.327Z,103083.50
2023-04-18T00:55:39.849Z,103086.63
2023-04-18T00:58:07.536Z,103088.66
2023-04-18T01:00:35.578Z,103083.47
2023-04-18T01:03:03.604Z,103091.44
2023-04-18T01:05:31.348Z,103087.88
2023-04-18T01:08:01.238Z,103087.03
2023-04-18T01:10:30.062Z,103084.50
2023-04-18T01:13:15.164Z,103087.34
2023-04-18T01:15:44.313Z,103092.00
2023-04-18T01:18:13.237Z,103089.22
2023-04-18T01:20:44.039Z,103089.16
2023-04-18T01:23:11.693Z,103091.91
2023-04-18T01:25:39.443Z,103094.84
2023-04-18T01:28:07.549Z,103093.38
2023-04-18T01:30:35.283Z,103103.47
2023-04-18T01:33:05.051Z,103101.88
2023-04-18T01:35:34.070Z,103105.59
2023-04-18T01:38:01.899Z,103103.78
2023-04-18T01:40:30.272Z,103104.78
2023-04-18T01:42:57.847Z,103106.75
2023-04-18T01:45:25.516Z,103105.91
2023-04-18T01:47:53.130Z,103104.22
2023-04-18T01:50:20.887Z,103103.63
2023-04-18T01:52:48.598Z,103103.13
2023-04-18T01:55:16.923Z,103106.81
2023-04-18T01:57:44.617Z,103112.31
2023-04-18T02:00:12.775Z,103102.81
2023-04-18T02:02:43.624Z,103107.34
2023-04-18T02:05:11.477Z,103109.16
2023-04-18T02:07:41.197Z,103103.97
2023-04-18T02:10:11.101Z,103114.72
2023-04-18T02:12:39.052Z,103117.50
2023-04-18T02:15:07.216Z,103111.44
2023-04-18T02:17:37.415Z,103115.06
2023-04-18T02:20:05.580Z,103118.78
2023-04-18T02:22:33.187Z,103118.09
2023-04-18T02:25:02.555Z,103120.75
2023-04-18T02:27:31.842Z,103127.06
2023-04-18T02:29:59.492Z,103132.47
2023-04-18T02:32:27.086Z,103136.16
2023-04-18T02:34:54.605Z,103137.88
2023-04-18T02:37:22.129Z,103137.22
2023-04-18T02:39:51.081Z,103133.97
2023-04-18T02:42:18.670Z,103132.50
2023-04-18T02:44:46.219Z,103137.19
2023-04-18T02:47:13.801Z,103138.56
2023-04-18T02:49:43.573Z,103142.38
2023-04-18T02:52:11.241Z,103142.38
2023-04-18T02:54:38.809Z,103138.97
2023-04-18T02:57:11.174Z,103148.72
2023-04-18T02:59:58.980Z,103144.31
2023-04-18T03:02:49.713Z,103148.81
2023-04-18T03:05:35.986Z,103140.94
2023-04-18T03:08:05.981Z,103151.53
2023-04-18T03:10:34.911Z,103148.28
2023-04-18T03:13:02.761Z,103146.97
2023-04-18T03:15:33.318Z,103151.78
2023-04-18T03:18:01.517Z,103146.59
2023-04-18T03:20:33.103Z,103154.66
2023-04-18T03:23:00.862Z,103153.75
2023-04-18T03:25:30.656Z,103157.91
2023-04-18T03:27:58.937Z,103161.41
2023-04-18T03:30:27.875Z,103161.47
2023-04-18T03:32:58.798Z,103164.19
2023-04-18T03:35:26.565Z,103171.41
2023-04-18T03:37:54.216Z,103166.75
2023-04-18T03:40:27.092Z,103171.00
2023-04-18T03:43:02.349Z,103171.28
2023-04-18T03:45:30.308Z,103175.88
2023-04-18T03:47:57.934Z,103176.00
2023-04-18T03:50:26.170Z,103175.41
2023-04-18T03:52:55.732Z,103181.22
2023-04-18T03:55:23.327Z,103182.47
2023-04-18T03:57:51.619Z,103185.53
2023-04-18T04:00:28.076Z,103191.41
2023-04-18T04:03:02.085Z,103192.66
2023-04-18T04:05:30.145Z,103189.41
2023-04-18T04:07:57.908Z,103192.41
2023-04-18T04:10:25.668Z,103189.13
2023-04-18T04:12:54.214Z,103192.97
2023-04-18T04:15:22.130Z,103189.75
2023-04-18T04:18:02.166Z,103197.00
2023-04-18T04:20:30.717Z,103187.47
2023-04-18T04:23:10.693Z,103192.28
2023-04-18T04:25:40.144Z,103197.00
2023-04-18T04:28:16.113Z,103203.47
2023-04-18T04:30:53.347Z,103200.41
2023-04-18T04:33:28.469Z,103204.47
2023-04-18T04:36:01.360Z,103214.44
2023-04-18T04:38:31.281Z,103208.28
2023-04-18T04:40:59.854Z,103212.03
2023-04-18T04:43:28.870Z,103221.88
2023-04-18T04:45:57.834Z,103222.13
2023-04-18T04:48:25.553Z,103206.41
2023-04-18T04:50:56.774Z,103212.66
2023-04-18T04:53:26.718Z,103220.59
2023-04-18T04:55:54.703Z,103222.44
2023-04-18T04:58:23.365Z,103223.59
2023-04-18T05:00:59.784Z,103232.81
2023-04-18T05:03:27.922Z,103219.69
2023-04-18T05:05:55.688Z,103230.44
2023-04-18T05:08:23.290Z,103227.03
2023-04-18T05:10:51.190Z,103241.97
2023-04-18T05:13:18.857Z,103239.38
2023-04-18T05:15:46.455Z,103243.03
2023-04-18T05:18:14.486Z,103243.28
2023-04-18T05:20:42.039Z,103245.13
2023-04-18T05:23:09.606Z,103249.56
2023-04-18T05:25:37.244Z,103249.59
2023-04-18T05:28:04.898Z,103252.25
2023-04-18T05:30:32.448Z,103249.69
2023-04-18T05:33:00.117Z,103259.41
2023-04-18T05:35:27.827Z,103252.16
2023-04-18T05:37:55.494Z,103257.19
2023-04-18T05:40:23.235Z,103265.13
2023-04-18T05:42:50.819Z,103261.50
2023-04-18T05:45:18.556Z,103258.88
2023-04-18T05:47:46.244Z,103265.91
2023-04-18T05:50:13.803Z,103277.41
2023-04-18T05:52:41.329Z,103273.88
2023-04-18T05:55:09.334Z,103270.25
2023-04-18T05:57:37.252Z,103272.94
2023-04-18T06:00:11.473Z,103272.25
2023-04-18T06:02:42.139Z,103282.94
2023-04-18T06:05:10.267Z,103278.53
2023-04-18T06:07:38.221Z,103289.09
2023-04-18T06:10:09.289Z,103295.19
2023-04-18T06:12:37.305Z,103286.44
2023-04-18T06:15:05.835Z,103296.34
2023-04-18T06:17:34.976Z,103300.75
2023-04-18T06:20:04.449Z,103295.47
2023-04-18T06:22:34.062Z,103299.94
2023-04-18T06:25:01.784Z,103313.03
2023-04-18T06:27:31.672Z,103310.09
2023-04-18T06:29:59.779Z,103312.56
2023-04-18T06:32:27.516Z,103310.66
2023-04-18T06:34:55.486Z,103318.34
2023-04-18T06:37:23.594Z,103309.34
2023-04-18T06:39:51.341Z,103306.69
2023-04-18T06:42:21.593Z,103311.00
2023-04-18T06:44:50.513Z,103302.84
2023-04-18T06:47:18.527Z,103311.59
2023-04-18T06:49:46.110Z,103311.31
2023-04-18T06:52:13.839Z,103314.66
2023-04-18T06:54:41.425Z,103314.59
2023-04-18T06:57:09.414Z,103309.91
2023-04-18T06:59:37.565Z,103319.72
2023-04-18T07:02:05.195Z,103322.38
2023-04-18T07:04:32.843Z,103319.84
2023-04-18T07:07:01.846Z,103323.41
2023-04-18T07:09:29.670Z,103322.28
2023-04-18T07:11:57.276Z,103325.72
2023-04-18T07:14:25.302Z,103329.97
2023-04-18T07:16:52.903Z,103338.72
2023-04-18T07:19:20.603Z,103339.53
2023-04-18T07:21:48.390Z,103340.38
2023-04-18T07:24:16.373Z,103332.19
2023-04-18T07:26:44.121Z,103340.22
2023-04-18T07:29:11.792Z,103342.84
2023-04-18T07:31:39.450Z,103341.03
2023-04-18T07:34:07.112Z,103343.59
2023-04-18T07:36:34.699Z,103336.25
2023-04-18T07:39:02.257Z,103334.22
2023-04-18T07:41:29.859Z,103344.59
2023-04-18T07:43:57.465Z,103343.72
2023-04-18T07:46:25.089Z,103349.88
2023-04-18T07:48:52.641Z,103352.31
2023-04-18T07:51:20.583Z,103353.78
2023-04-18T07:53:48.226Z,103343.78
2023-04-18T07:56:15.902Z,103354.97
2023-04-18T07:58:43.515Z,103351.25
2023-04-18T08:01:14.194Z,103348.41
2023-04-18T08:03:42.073Z,103348.09
2023-04-18T08:06:10.045Z,103344.25
2023-04-18T08:08:37.835Z,103339.75
2023-04-18T08:11:05.488Z,103344.25
2023-04-18T08:13:33.147Z,103354.94
2023-04-18T08:16:02.359Z,103355.81
2023-04-18T08:18:30.248Z,103358.66
2023-04-18T08:20:57.789Z,103345.28
2023-04-18T08:23:25.504Z,103354.25
2023-04-18T08:25:53.064Z,103341.91
2023-04-18T08:28:21.011Z,103355.06
2023-04-18T08:30:57.276Z,103352.88
2023-04-18T08:33:26.505Z,103346.53
2023-04-18T08:35:54.423Z,103346.19
2023-04-18T08:38:22.867Z,103352.03
2023-04-18T08:40:50.540Z,103354.38
2023-04-18T08:43:18.251Z,103349.81
2023-04-18T08:45:47.388Z,103357.53
2023-04-18T08:48:16.463Z,103354.59
2023-04-18T08:50:44.987Z,103359.94
2023-04-18T08:53:12.701Z,103360.97
2023-04-18T08:55:40.686Z,103362.78
2023-04-18T08:58:08.259Z,103360.13
2023-04-18T09:00:35.817Z,103355.72
2023-04-18T09:03:04.041Z,103363.53
2023-04-18T09:05:31.799Z,103366.06
2023-04-18T09:07:59.431Z,103363.09
2023-04-18T09:10:29.019Z,103356.56
2023-04-18T09:12:58.037Z,103366.16
2023-04-18T09:15:27.477Z,103354.75
2023-04-18T09:17:58.037Z,103372.72
2023-04-18T09:20:41.359Z,103364.13
2023-04-18T09:23:11.583Z,103362.41
2023-04-18T09:25:44.740Z,103362.84
2023-04-18T09:28:29.321Z,103369.56
2023-04-18T09:31:09.668Z,103365.78
2023-04-18T09:33:38.652Z,103368.84
2023-04-18T09:36:21.024Z,103359.50
2023-04-18T09:38:49.901Z,103362.66
2023-04-18T09:41:20.756Z,103357.81
2023-04-18T09:43:49.889Z,103360.13
2023-04-18T09:46:22.669Z,103361.94
2023-04-18T09:48:50.570Z,103357.00
2023-04-18T09:51:18.467Z,103368.78
2023-04-18T09:53:47.654Z,103359.75
2023-04-18T09:56:23.903Z,103362.69
2023-04-18T09:58:57.126Z,103356.75
2023-04-18T10:01:29.620Z,103356.97
2023-04-18T10:03:57.880Z,103351.81
2023-04-18T10:06:27.999Z,103351.94
2023-04-18T10:08:56.311Z,103355.22
2023-04-18T10:11:24.404Z,103358.31
2023-04-18T10:13:57.540Z,103355.13
2023-04-18T10:16:26.372Z,103358.63
2023-04-18T10:18:54.020Z,103350.59
2023-04-18T10:21:21.813Z,103356.81
2023-04-18T10:23:50.410Z,103349.78
2023-04-18T10:26:18.109Z,103354.19
2023-04-18T10:28:57.264Z,103354.72
2023-04-18T10:31:29.193Z,103347.94
2023-04-18T10:34:17.696Z,103350.88
2023-04-18T10:37:03.832Z,103350.44
2023-04-18T10:39:46.700Z,103352.31
2023-04-18T10:42:14.590Z,103356.50
2023-04-18T10:44:42.095Z,103347.56
2023-04-18T10:47:20.730Z,103348.00
2023-04-18T10:49:55.067Z,103343.84
2023-04-18T10:52:22.762Z,103352.53
2023-04-18T10:55:05.721Z,103350.78
2023-04-18T10:57:43.713Z,103345.66
2023-04-18T11:00:14.069Z,103354.25
2023-04-18T11:02:50.253Z,103355.66
2023-04-18T11:05:26.867Z,103349.66
2023-04-18T11:07:54.893Z,103352.88
2023-04-18T11:10:25.610Z,103341.81
2023-04-18T11:12:54.881Z,103340.63
2023-04-18T11:15:24.001Z,103344.56
2023-04-18T11:18:05.128Z,103334.84
2023-04-18T11:20:46.073Z,103332.69
2023-04-18T11:23:23.116Z,103334.84
2023-04-18T11:25:56.541Z,103339.03
2023-04-18T11:28:27.646Z,103331.91
2023-04-18T11:31:00.274Z,103329.72
2023-04-18T11:33:29.471Z,103322.44
2023-04-18T11:36:42.267Z,103325.19
2023-04-18T11:52:35.588Z,103313.75
2023-04-18T11:55:27.629Z,103304.84
2023-04-18T11:58:15.992Z,103305.63
2023-04-18T12:00:43.641Z,103298.78
2023-04-18T12:03:19.021Z,103308.03
2023-04-18T12:05:47.101Z,103294.78
2023-04-18T12:08:20.751Z,103290.50
2023-04-18T12:23:45.201Z,103273.00
2023-04-18T12:26:21.220Z,103267.72
2023-04-18T12:28:52.916Z,103259.88
2023-04-18T12:34:26.692Z,103278.41
2023-04-18T12:36:54.351Z,103273.00
2023-04-18T12:39:21.943Z,103277.53
2023-04-18T12:41:50.003Z,103270.91
2023-04-18T12:44:17.765Z,103270.72
2023-04-18T12:46:45.423Z,103277.59
2023-04-18T12:49:31.056Z,103273.16
2023-04-18T12:51:58.852Z,103273.94
2023-04-18T12:54:26.538Z,103267.06
2023-04-18T12:56:54.227Z,103265.34
2023-04-18T12:59:21.809Z,103269.00
2023-04-18T13:01:49.442Z,103272.09
2023-04-18T13:04:17.252Z,103263.84
2023-04-18T13:06:45.344Z,103253.81
2023-04-18T13:09:13.092Z,103272.44
2023-04-18T13:11:40.850Z,103266.19
2023-04-18T13:14:08.572Z,103260.16
2023-04-18T13:16:36.306Z,103262.13
2023-04-18T13:19:03.889Z,103265.63
2023-04-18T13:21:31.486Z,103261.34
2023-04-18T13:23:59.170Z,103252.66
2023-04-18T13:26:26.974Z,103258.53
2023-04-18T13:28:54.678Z,103246.75
2023-04-18T13:31:22.266Z,103258.59
2023-04-18T13:33:49.834Z,103262.09
2023-04-18T13:36:18.045Z,103247.66
2023-04-18T13:38:46.319Z,103242.22
2023-04-18T13:41:13.945Z,103236.59
2023-04-18T13:43:41.557Z,103240.78
2023-04-18T13:46:09.268Z,103230.31
2023-04-18T13:48:36.973Z,103236.47
2023-04-18T13:51:04.783Z,103234.31
2023-04-18T13:53:32.640Z,103232.63
2023-04-18T13:56:01.827Z,103241.31
2023-04-18T13:58:29.720Z,103239.63
2023-04-18T14:00:57.334Z,103237.72
2023-04-18T14:03:25.172Z,103234.66
2023-04-18T14:05:52.928Z,103224.69
2023-04-18T14:08:21.068Z,103234.09
2023-04-18T14:10:48.636Z,103234.63
2023-04-18T14:13:16.908Z,103232.16
2023-04-18T14:15:44.516Z,103238.88
2023-04-18T14:18:12.163Z,103224.13
2023-04-18T14:20:39.866Z,103234.41
2023-04-18T14:23:07.401Z,103232.81
2023-04-18T14:25:35.166Z,103212.53
2023-04-18T14:28:09.698Z,103217.72
2023-04-18T14:30:39.225Z,103218.19
2023-04-18T14:33:09.205Z,103215.22
2023-04-18T14:35:37.240Z,103214.56
2023-04-18T14:38:04.829Z,103207.81
2023-04-18T14:40:33.099Z,103208.28
2023-04-18T14:43:00.819Z,103209.09
2023-04-18T14:45:28.467Z,103198.78
2023-04-18T14:47:56.154Z,103201.13
2023-04-18T14:50:23.983Z,103204.97
2023-04-18T14:52:51.578Z,103205.59
2023-04-18T14:55:20.226Z,103199.47
2023-04-18T14:57:48.138Z,103205.09
2023-04-18T15:00:16.039Z,103198.75
2023-04-18T15:02:44.038Z,103199.38
2023-04-18T15:05:12.519Z,103205.84
2023-04-18T15:07:41.249Z,103194.44
2023-04-18T15:10:10.458Z,103196.47
2023-04-18T15:12:38.152Z,103198.75
2023-04-18T15:15:06.694Z,103189.69
2023-04-18T15:17:34.195Z,103195.84
2023-04-18T15:20:01.987Z,103183.94
2023-04-18T15:22:29.785Z,103189.03
2023-04-18T15:24:57.903Z,103188.81
2023-04-18T15:27:25.611Z,103186.97
2023-04-18T15:29:53.567Z,103188.81
2023-04-18T15:32:22.126Z,103179.97
2023-04-18T15:34:49.779Z,103182.22
2023-04-18T15:37:17.391Z,103178.13
2023-04-18T15:39:45.027Z,103179.84
2023-04-18T15:42:12.712Z,103178.47
2023-04-18T15:44:40.447Z,103171.97
2023-04-18T15:47:08.133Z,103170.25
2023-04-18T15:49:35.971Z,103166.78
2023-04-18T15:52:03.733Z,103170.66
2023-04-18T15:54:31.281Z,103174.09
2023-04-18T15:56:58.901Z,103171.38
2023-04-18T15:59:26.488Z,103179.06
2023-04-18T16:01:54.192Z,103174.66
2023-04-18T16:04:21.907Z,103167.63
2023-04-18T16:06:49.608Z,103174.94
2023-04-18T16:09:17.113Z,103184.19
2023-04-18T16:11:44.693Z,103182.97
2023-04-18T16:14:12.730Z,103183.28
2023-04-18T16:16:40.479Z,103182.50
2023-04-18T16:19:08.089Z,103183.78
2023-04-18T16:21:35.711Z,103186.28
2023-04-18T16:24:03.292Z,103185.63
2023-04-18T16:26:30.869Z,103179.41
2023-04-18T16:28:58.623Z,103181.50
2023-04-18T16:31:26.354Z,103179.22
2023-04-18T16:33:54.105Z,103178.53
2023-04-18T16:36:21.815Z,103174.91
2023-04-18T16:38:49.411Z,103177.59
2023-04-18T16:41:16.944Z,103171.66
2023-04-18T16:43:44.567Z,103173.38
2023-04-18T16:46:13.835Z,103183.19
2023-04-18T16:48:41.820Z,103177.69
2023-04-18T16:51:09.369Z,103176.84
2023-04-18T16:53:36.984Z,103180.69
2023-04-18T16:56:04.853Z,103173.56
2023-04-18T16:58:32.844Z,103175.59
2023-04-18T17:01:02.444Z,103178.47
2023-04-18T17:03:30.260Z,103167.63
2023-04-18T17:05:58.016Z,103172.03
2023-04-18T17:08:27.167Z,103175.03
2023-04-18T17:10:55.469Z,103180.69
2023-04-18T17:13:26.913Z,103182.63
2023-04-18T17:15:54.762Z,103178.31
2023-04-18T17:18:22.440Z,103183.69
2023-04-18T17:20:50.063Z,103192.03
2023-04-18T17:23:19.392Z,103176.50
2023-04-18T17:25:47.714Z,103183.47
2023-04-18T17:28:15.398Z,103180.13
2023-04-18T17:30:43.047Z,103186.63
2023-04-18T17:33:11.156Z,103185.16
2023-04-18T17:35:41.747Z,103189.94
2023-04-18T17:38:10.676Z,103193.41
2023-04-18T17:40:39.480Z,103182.41
2023-04-18T17:43:07.088Z,103188.94
2023-04-18T17:45:34.689Z,103190.28
2023-04-18T17:48:03.136Z,103191.41
2023-04-18T17:50:31.026Z,103188.03
2023-04-18T17:52:58.655Z,103190.88
2023-04-18T17:55:26.695Z,103195.69
2023-04-18T17:57:54.252Z,103206.09
2023-04-18T18:00:21.944Z,103199.53
2023-04-18T18:02:49.728Z,103203.59
2023-04-18T18:05:17.412Z,103197.44
2023-04-18T18:07:47.714Z,103212.88
2023-04-18T18:10:22.414Z,103219.88
2023-04-18T18:12:50.169Z,103213.41
2023-04-18T18:15:18.280Z,103210.00
2023-04-18T18:17:48.858Z,103215.00
2023-04-18T18:20:17.262Z,103207.53
2023-04-18T18:22:44.799Z,103206.94
2023-04-18T18:25:13.267Z,103209.97
2023-04-18T18:27:40.987Z,103217.72
2023-04-18T18:30:09.005Z,103212.66
2023-04-18T18:32:36.614Z,103211.28
2023-04-18T18:35:06.073Z,103216.03
2023-04-18T18:37:33.791Z,103221.00
2023-04-18T18:40:04.992Z,103223.06
2023-04-18T18:42:32.604Z,103221.56
2023-04-18T18:45:01.695Z,103236.22
2023-04-18T18:47:30.663Z,103232.22
2023-04-18T18:49:58.312Z,103237.00
2023-04-18T18:52:28.141Z,103229.53
2023-04-18T18:54:55.839Z,103246.94
2023-04-18T18:57:23.469Z,103251.94
2023-04-18T18:59:51.056Z,103243.47
2023-04-18T19:02:19.201Z,103249.25
2023-04-18T19:04:47.677Z,103250.66
2023-04-18T19:07:16.048Z,103257.16
2023-04-18T19:09:43.686Z,103257.53
2023-04-18T19:12:11.258Z,103261.59
2023-04-18T19:14:40.232Z,103259.44
2023-04-18T19:17:09.028Z,103258.09
2023-04-18T19:19:36.550Z,103267.47
2023-04-18T19:22:04.277Z,103264.34
2023-04-18T19:24:32.125Z,103257.69
2023-04-18T19:26:59.849Z,103271.41
2023-04-18T19:29:27.358Z,103265.47
2023-04-18T19:31:55.488Z,103278.22
2023-04-18T19:34:23.143Z,103274.88
2023-04-18T19:36:50.743Z,103283.09
2023-04-18T19:39:18.393Z,103283.25
2023-04-18T19:41:46.169Z,103283.50
2023-04-18T19:44:13.687Z,103283.88
2023-04-18T19:46:41.320Z,103274.50
2023-04-18T19:49:08.865Z,103288.03
2023-04-18T19:51:36.523Z,103290.03
2023-04-18T19:54:04.750Z,103292.94
2023-04-18T19:56:32.440Z,103292.22
2023-04-18T19:59:00.118Z,103297.78
2023-04-18T20:01:27.938Z,103293.56
2023-04-18T20:03:58.669Z,103304.44
2023-04-18T20:06:27.205Z,103296.56
2023-04-18T20:08:55.113Z,103294.88
2023-04-18T20:11:22.769Z,103292.41
2023-04-18T20:13:52.311Z,103297.91
2023-04-18T20:16:21.347Z,103296.28
2023-04-18T20:18:51.899Z,103288.50
2023-04-18T20:21:20.698Z,103296.59
2023-04-18T20:23:48.282Z,103299.28
2023-04-18T20:26:15.865Z,103294.84
2023-04-18T20:28:43.493Z,103305.63
2023-04-18T20:31:12.815Z,103310.19
2023-04-18T20:33:40.411Z,103312.03
2023-04-18T20:36:08.793Z,103306.03
2023-04-18T20:38:36.943Z,103324.69
2023-04-18T20:41:06.248Z,103319.50
2023-04-18T20:43:37.349Z,103322.28
2023-04-18T20:46:04.997Z,103332.91
2023-04-18T20:48:32.788Z,103334.75
2023-04-18T20:51:00.468Z,103347.22
2023-04-18T20:53:29.112Z,103343.69
2023-04-18T20:55:56.715Z,103341.06
2023-04-18T20:58:24.358Z,103339.50
2023-04-18T21:00:52.202Z,103338.69
2023-04-18T21:03:19.884Z,103339.78
2023-04-18T21:05:47.597Z,103346.03
2023-04-18T21:08:15.160Z,103340.00
2023-04-18T21:10:42.776Z,103341.03
2023-04-18T21:13:12.735Z,103340.38
2023-04-18T21:15:42.325Z,103341.38
2023-04-18T21:18:10.081Z,103344.16
2023-04-18T21:20:37.839Z,103333.66
2023-04-18T21:23:05.448Z,103335.56
2023-04-18T21:25:33.080Z,103345.38
2023-04-18T21:28:00.993Z,103336.56
2023-04-18T21:30:28.609Z,103341.13
2023-04-18T21:32:56.239Z,103338.56
2023-04-18T21:35:24.870Z,103339.50
2023-04-18T21:37:52.815Z,103337.81
2023-04-18T21:40:20.435Z,103339.72
2023-04-18T21:42:51.585Z,103338.09
2023-04-18T21:45:19.231Z,103338.22
2023-04-18T21:47:47.125Z,103338.34
2023-04-18T21:50:14.775Z,103330.50
2023-04-18T21:52:42.431Z,103341.25
2023-04-18T21:55:10.216Z,103338.72
2023-04-18T21:57:37.786Z,103344.22
2023-04-18T22:00:08.419Z,103331.03
2023-04-18T22:02:37.741Z,103335.53
2023-04-18T22:05:05.813Z,103328.53
2023-04-18T22:07:40.797Z,103334.84
2023-04-18T22:10:14.120Z,103328.75
2023-04-18T22:12:42.538Z,103324.38
2023-04-18T22:15:10.586Z,103323.59
2023-04-18T22:17:38.347Z,103334.22
2023-04-18T22:20:08.061Z,103325.47
2023-04-18T22:22:35.669Z,103337.94
2023-04-18T22:25:03.691Z,103331.03
2023-04-18T22:27:31.311Z,103331.13
2023-04-18T22:29:58.872Z,103329.47
2023-04-18T22:32:26.509Z,103329.50
2023-04-18T22:34:54.093Z,103326.94
2023-04-18T22:37:21.762Z,103329.66
2023-04-18T22:39:49.331Z,103330.63
2023-04-18T22:42:16.855Z,103337.75
2023-04-18T22:44:44.446Z,103328.97
2023-04-18T22:47:12.436Z,103330.81
2023-04-18T22:49:40.467Z,103330.88
2023-04-18T22:52:08.416Z,103328.25
2023-04-18T22:54:40.374Z,103334.50
2023-04-18T22:57:09.437Z,103328.41
2023-04-18T22:59:37.244Z,103327.53
2023-04-18T23:02:04.876Z,103325.78
2023-04-18T23:04:32.851Z,103340.94
2023-04-18T23:07:00.477Z,103340.97
2023-04-18T23:09:31.240Z,103340.97
2023-04-18T23:11:58.895Z,103327.75
2023-04-18T23:14:26.653Z,103334.94
2023-04-18T23:16:54.328Z,103327.03
2023-04-18T23:19:22.191Z,103319.09
2023-04-18T23:21:49.957Z,103323.56
2023-04-18T23:24:17.572Z,103318.31
2023-04-18T23:26:45.524Z,103321.03
2023-04-18T23:29:13.067Z,103322.88
2023-04-18T23:31:41.088Z,103329.97
2023-04-18T23:34:10.721Z,103325.56
2023-04-18T23:36:40.452Z,103333.59
2023-04-18T23:39:08.718Z,103330.09
2023-04-18T23:41:36.303Z,103326.56
2023-04-18T23:44:03.946Z,103327.53
2023-04-18T23:46:31.607Z,103324.00
2023-04-18T23:48:59.264Z,103331.22
2023-04-18T23:51:28.113Z,103335.63
2023-04-18T23:53:55.660Z,103349.81
2023-04-18T23:56:23.289Z,103345.44
2023-04-18T23:58:50.941Z,103343.69
